sensor_id;sensor_type;location;lat;lon;timestamp;pressure;altitude;pressure_sealevel;temperature;humidity
60817;BME280;51921;51.518;-3.188;2023-06-14T00:00:24;101286.96;;;16.93;51.62
60817;BME280;51921;51.518;-3.188;2023-06-14T00:02:49;101289.57;;;16.19;52.31
60817;BME280;51921;51.518;-3.188;2023-06-14T00:05:14;101292.35;;;15.90;54.50
60817;BME280;51921;51.518;-3.188;2023-06-14T00:07:41;101286.36;;;15.99;56.89
60817;BME280;51921;51.518;-3.188;2023-06-14T00:10:05;101292.49;;;15.28;59.49
60817;BME280;51921;51.518;-3.188;2023-06-14T00:12:31;101293.91;;;15.65;59.07
60817;BME280;51921;51.518;-3.188;2023-06-14T00:14:56;101293.97;;;15.20;61.05
60817;BME280;51921;51.518;-3.188;2023-06-14T00:17:21;101295.19;;;15.88;59.61
60817;BME280;51921;51.518;-3.188;2023-06-14T00:19:46;101300.28;;;15.84;59.75
60817;BME280;51921;51.518;-3.188;2023-06-14T00:22:12;101300.74;;;15.68;60.06
60817;BME280;51921;51.518;-3.188;2023-06-14T00:24:38;101300.18;;;15.65;59.83
60817;BME280;51921;51.518;-3.188;2023-06-14T00:27:03;101305.40;;;15.35;62.30
60817;BME280;51921;51.518;-3.188;2023-06-14T00:29:29;101313.44;;;15.43;62.45
60817;BME280;51921;51.518;-3.188;2023-06-14T00:31:54;101307.21;;;15.50;60.53
60817;BME280;51921;51.518;-3.188;2023-06-14T00:34:19;101316.06;;;15.07;62.46
60817;BME280;51921;51.518;-3.188;2023-06-14T00:36:45;101316.74;;;15.70;61.72
60817;BME280;51921;51.518;-3.188;2023-06-14T00:39:10;101321.89;;;15.02;63.47
60817;BME280;51921;51.518;-3.188;2023-06-14T00:41:35;101324.13;;;15.21;61.72
60817;BME280;51921;51.518;-3.188;2023-06-14T00:44:00;101329.62;;;15.11;64.01
60817;BME280;51921;51.518;-3.188;2023-06-14T00:46:26;101330.36;;;15.28;63.21
60817;BME280;51921;51.518;-3.188;2023-06-14T00:48:52;101330.37;;;14.85;63.79
60817;BME280;51921;51.518;-3.188;2023-06-14T00:51:17;101333.08;;;14.90;65.02
60817;BME280;51921;51.518;-3.188;2023-06-14T00:53:42;101336.01;;;15.24;62.85
60817;BME280;51921;51.518;-3.188;2023-06-14T00:56:12;101335.68;;;14.52;66.24
60817;BME280;51921;51.518;-3.188;2023-06-14T00:58:33;101337.77;;;14.66;64.86
60817;BME280;51921;51.518;-3.188;2023-06-14T01:00:58;101340.74;;;15.03;64.11
60817;BME280;51921;51.518;-3.188;2023-06-14T01:03:23;101343.76;;;14.81;64.74
60817;BME280;51921;51.518;-3.188;2023-06-14T01:05:49;101342.23;;;15.05;62.21
60817;BME280;51921;51.518;-3.188;2023-06-14T01:08:21;101345.44;;;14.42;64.95
60817;BME280;51921;51.518;-3.188;2023-06-14T01:10:46;101348.53;;;14.34;64.73
60817;BME280;51921;51.518;-3.188;2023-06-14T01:13:10;101352.32;;;14.27;66.19
60817;BME280;51921;51.518;-3.188;2023-06-14T01:15:30;101347.83;;;15.03;64.42
60817;BME280;51921;51.518;-3.188;2023-06-14T01:17:55;101354.04;;;14.06;68.61
60817;BME280;51921;51.518;-3.188;2023-06-14T01:20:21;101353.23;;;14.20;66.96
60817;BME280;51921;51.518;-3.188;2023-06-14T01:22:51;101350.00;;;15.60;63.10
60817;BME280;51921;51.518;-3.188;2023-06-14T01:25:11;101352.66;;;14.25;64.72
60817;BME280;51921;51.518;-3.188;2023-06-14T01:27:37;101350.62;;;14.15;66.93
60817;BME280;51921;51.518;-3.188;2023-06-14T01:30:02;101351.67;;;14.43;68.40
60817;BME280;51921;51.518;-3.188;2023-06-14T01:32:29;101348.78;;;14.08;72.01
60817;BME280;51921;51.518;-3.188;2023-06-14T01:34:53;101349.00;;;13.87;73.80
60817;BME280;51921;51.518;-3.188;2023-06-14T01:37:19;101349.74;;;13.75;74.93
60817;BME280;51921;51.518;-3.188;2023-06-14T01:39:44;101348.37;;;13.93;72.69
60817;BME280;51921;51.518;-3.188;2023-06-14T01:42:10;101351.05;;;13.92;73.96
60817;BME280;51921;51.518;-3.188;2023-06-14T01:44:35;101349.80;;;13.98;73.10
60817;BME280;51921;51.518;-3.188;2023-06-14T01:47:00;101350.03;;;13.45;77.22
60817;BME280;51921;51.518;-3.188;2023-06-14T01:49:26;101348.05;;;13.56;75.48
60817;BME280;51921;51.518;-3.188;2023-06-14T01:51:56;101343.01;;;13.89;75.53
60817;BME280;51921;51.518;-3.188;2023-06-14T01:54:16;101341.71;;;13.89;74.43
60817;BME280;51921;51.518;-3.188;2023-06-14T01:56:41;101339.97;;;13.68;74.67
60817;BME280;51921;51.518;-3.188;2023-06-14T01:59:07;101339.09;;;13.60;76.78
60817;BME280;51921;51.518;-3.188;2023-06-14T02:01:32;101337.91;;;13.36;79.61
60817;BME280;51921;51.518;-3.188;2023-06-14T02:03:57;101337.34;;;13.69;77.73
60817;BME280;51921;51.518;-3.188;2023-06-14T02:06:22;101335.50;;;13.37;79.40
60817;BME280;51921;51.518;-3.188;2023-06-14T02:08:48;101331.75;;;13.19;81.87
60817;BME280;51921;51.518;-3.188;2023-06-14T02:11:13;101329.54;;;13.24;81.36
60817;BME280;51921;51.518;-3.188;2023-06-14T02:13:38;101330.88;;;13.20;81.17
60817;BME280;51921;51.518;-3.188;2023-06-14T02:16:03;101332.80;;;13.26;80.59
60817;BME280;51921;51.518;-3.188;2023-06-14T02:18:29;101333.75;;;13.47;81.53
60817;BME280;51921;51.518;-3.188;2023-06-14T02:20:55;101336.62;;;13.50;82.04
60817;BME280;51921;51.518;-3.188;2023-06-14T02:23:20;101334.71;;;13.20;84.24
60817;BME280;51921;51.518;-3.188;2023-06-14T02:25:45;101337.40;;;13.24;83.67
60817;BME280;51921;51.518;-3.188;2023-06-14T02:28:10;101340.46;;;13.39;83.25
60817;BME280;51921;51.518;-3.188;2023-06-14T02:30:35;101337.50;;;12.93;84.92
60817;BME280;51921;51.518;-3.188;2023-06-14T02:33:00;101338.50;;;12.80;86.37
60817;BME280;51921;51.518;-3.188;2023-06-14T02:35:26;101335.34;;;13.07;85.80
60817;BME280;51921;51.518;-3.188;2023-06-14T02:37:51;101329.53;;;13.12;85.41
60817;BME280;51921;51.518;-3.188;2023-06-14T02:40:16;101334.04;;;12.88;87.33
60817;BME280;51921;51.518;-3.188;2023-06-14T02:42:42;101331.91;;;13.12;84.61
60817;BME280;51921;51.518;-3.188;2023-06-14T02:45:08;101329.71;;;12.56;87.61
60817;BME280;51921;51.518;-3.188;2023-06-14T02:47:33;101330.59;;;12.57;87.17
60817;BME280;51921;51.518;-3.188;2023-06-14T02:49:58;101329.33;;;12.21;87.89
60817;BME280;51921;51.518;-3.188;2023-06-14T02:52:24;101327.20;;;12.58;90.04
60817;BME280;51921;51.518;-3.188;2023-06-14T02:54:50;101333.81;;;12.58;88.01
60817;BME280;51921;51.518;-3.188;2023-06-14T02:57:15;101332.65;;;12.46;88.81
60817;BME280;51921;51.518;-3.188;2023-06-14T02:59:40;101329.10;;;12.41;87.98
60817;BME280;51921;51.518;-3.188;2023-06-14T03:02:06;101324.93;;;12.42;88.72
60817;BME280;51921;51.518;-3.188;2023-06-14T03:04:30;101327.80;;;12.86;86.10
60817;BME280;51921;51.518;-3.188;2023-06-14T03:06:56;101327.89;;;12.32;87.96
60817;BME280;51921;51.518;-3.188;2023-06-14T03:09:22;101328.49;;;12.27;87.17
60817;BME280;51921;51.518;-3.188;2023-06-14T03:11:46;101329.66;;;12.47;84.93
60817;BME280;51921;51.518;-3.188;2023-06-14T03:14:11;101330.44;;;12.38;85.20
60817;BME280;51921;51.518;-3.188;2023-06-14T03:16:37;101330.30;;;12.21;85.72
60817;BME280;51921;51.518;-3.188;2023-06-14T03:19:02;101329.89;;;12.35;86.34
60817;BME280;51921;51.518;-3.188;2023-06-14T03:21:28;101327.44;;;12.26;84.54
60817;BME280;51921;51.518;-3.188;2023-06-14T03:23:53;101327.27;;;12.42;81.90
60817;BME280;51921;51.518;-3.188;2023-06-14T03:26:18;101327.42;;;12.70;81.18
60817;BME280;51921;51.518;-3.188;2023-06-14T03:28:44;101328.31;;;12.10;82.95
60817;BME280;51921;51.518;-3.188;2023-06-14T03:31:09;101333.51;;;12.50;80.39
60817;BME280;51921;51.518;-3.188;2023-06-14T03:33:35;101335.96;;;12.31;83.31
60817;BME280;51921;51.518;-3.188;2023-06-14T03:36:00;101332.31;;;12.03;81.63
60817;BME280;51921;51.518;-3.188;2023-06-14T03:38:25;101333.11;;;11.91;81.11
60817;BME280;51921;51.518;-3.188;2023-06-14T03:40:51;101333.86;;;12.28;76.98
60817;BME280;51921;51.518;-3.188;2023-06-14T03:43:16;101338.22;;;12.66;74.52
60817;BME280;51921;51.518;-3.188;2023-06-14T03:45:41;101341.65;;;12.82;71.94
60817;BME280;51921;51.518;-3.188;2023-06-14T03:48:08;101344.19;;;12.64;69.62
60817;BME280;51921;51.518;-3.188;2023-06-14T03:50:32;101346.17;;;12.44;67.43
60817;BME280;51921;51.518;-3.188;2023-06-14T03:52:57;101347.34;;;12.13;67.25
60817;BME280;51921;51.518;-3.188;2023-06-14T03:55:23;101348.73;;;12.73;63.04
60817;BME280;51921;51.518;-3.188;2023-06-14T03:57:48;101348.93;;;11.96;65.58
60817;BME280;51921;51.518;-3.188;2023-06-14T04:00:14;101350.50;;;12.28;63.05
60817;BME280;51921;51.518;-3.188;2023-06-14T04:02:39;101348.84;;;12.19;64.03
60817;BME280;51921;51.518;-3.188;2023-06-14T04:05:05;101351.83;;;12.40;61.89
60817;BME280;51921;51.518;-3.188;2023-06-14T04:07:30;101355.81;;;12.49;60.28
60817;BME280;51921;51.518;-3.188;2023-06-14T04:09:55;101355.24;;;12.04;58.42
60817;BME280;51921;51.518;-3.188;2023-06-14T04:12:21;101358.26;;;12.36;56.60
60817;BME280;51921;51.518;-3.188;2023-06-14T04:14:46;101356.96;;;12.23;57.65
60817;BME280;51921;51.518;-3.188;2023-06-14T04:17:12;101358.16;;;12.08;54.46
60817;BME280;51921;51.518;-3.188;2023-06-14T04:19:37;101359.79;;;12.04;55.34
60817;BME280;51921;51.518;-3.188;2023-06-14T04:22:03;101359.34;;;12.15;54.78
60817;BME280;51921;51.518;-3.188;2023-06-14T04:24:29;101361.18;;;11.94;53.74
60817;BME280;51921;51.518;-3.188;2023-06-14T04:26:54;101359.06;;;11.54;54.81
60817;BME280;51921;51.518;-3.188;2023-06-14T04:29:19;101356.68;;;12.18;52.04
60817;BME280;51921;51.518;-3.188;2023-06-14T04:31:45;101360.93;;;11.29;54.22
60817;BME280;51921;51.518;-3.188;2023-06-14T04:34:11;101359.94;;;11.01;53.59
60817;BME280;51921;51.518;-3.188;2023-06-14T04:36:36;101357.62;;;11.66;50.97
60817;BME280;51921;51.518;-3.188;2023-06-14T04:39:01;101359.82;;;11.57;49.96
60817;BME280;51921;51.518;-3.188;2023-06-14T04:41:27;101357.38;;;11.68;49.83
60817;BME280;51921;51.518;-3.188;2023-06-14T04:43:52;101362.83;;;11.84;48.49
60817;BME280;51921;51.518;-3.188;2023-06-14T04:46:18;101364.18;;;11.33;49.24
60817;BME280;51921;51.518;-3.188;2023-06-14T04:48:43;101368.21;;;11.28;48.26
60817;BME280;51921;51.518;-3.188;2023-06-14T04:51:09;101371.04;;;11.49;47.70
60817;BME280;51921;51.518;-3.188;2023-06-14T04:53:34;101375.37;;;11.35;47.11
60817;BME280;51921;51.518;-3.188;2023-06-14T04:56:00;101379.71;;;11.18;45.78
60817;BME280;51921;51.518;-3.188;2023-06-14T04:58:25;101373.49;;;11.69;44.65
60817;BME280;51921;51.518;-3.188;2023-06-14T05:00:51;101380.07;;;11.22;44.74
60817;BME280;51921;51.518;-3.188;2023-06-14T05:03:16;101378.55;;;10.93;44.94
60817;BME280;51921;51.518;-3.188;2023-06-14T05:05:41;101379.52;;;10.69;45.04
60817;BME280;51921;51.518;-3.188;2023-06-14T05:08:07;101385.69;;;10.63;45.41
60817;BME280;51921;51.518;-3.188;2023-06-14T05:10:32;101381.78;;;10.72;45.44
60817;BME280;51921;51.518;-3.188;2023-06-14T05:12:57;101378.79;;;10.87;45.07
60817;BME280;51921;51.518;-3.188;2023-06-14T05:15:23;101381.37;;;10.78;45.26
60817;BME280;51921;51.518;-3.188;2023-06-14T05:17:48;101385.07;;;10.95;44.83
60817;BME280;51921;51.518;-3.188;2023-06-14T05:20:14;101390.73;;;11.17;45.21
60817;BME280;51921;51.518;-3.188;2023-06-14T05:22:39;101393.11;;;10.78;45.45
60817;BME280;51921;51.518;-3.188;2023-06-14T05:25:05;101401.04;;;10.85;45.94
60817;BME280;51921;51.518;-3.188;2023-06-14T05:27:30;101400.53;;;11.20;45.57
60817;BME280;51921;51.518;-3.188;2023-06-14T05:29:56;101399.40;;;10.99;45.97
60817;BME280;51921;51.518;-3.188;2023-06-14T05:32:21;101403.80;;;10.90;46.69
60817;BME280;51921;51.518;-3.188;2023-06-14T05:34:47;101399.81;;;11.03;46.95
60817;BME280;51921;51.518;-3.188;2023-06-14T05:37:12;101398.97;;;11.07;47.97
60817;BME280;51921;51.518;-3.188;2023-06-14T05:39:38;101394.95;;;11.15;47.95
60817;BME280;51921;51.518;-3.188;2023-06-14T05:42:04;101403.02;;;11.23;48.31
60817;BME280;51921;51.518;-3.188;2023-06-14T05:44:29;101399.78;;;11.38;47.81
60817;BME280;51921;51.518;-3.188;2023-06-14T05:46:54;101397.87;;;11.13;47.64
60817;BME280;51921;51.518;-3.188;2023-06-14T05:49:20;101399.40;;;11.48;48.18
60817;BME280;51921;51.518;-3.188;2023-06-14T05:51:45;101397.65;;;12.32;47.41
60817;BME280;51921;51.518;-3.188;2023-06-14T05:54:10;101405.93;;;11.04;50.12
60817;BME280;51921;51.518;-3.188;2023-06-14T05:56:36;101405.30;;;10.80;51.24
60817;BME280;51921;51.518;-3.188;2023-06-14T05:59:01;101403.95;;;11.82;49.18
60817;BME280;51921;51.518;-3.188;2023-06-14T06:01:27;101407.14;;;11.26;50.07
60817;BME280;51921;51.518;-3.188;2023-06-14T06:03:52;101408.90;;;10.60;52.69
60817;BME280;51921;51.518;-3.188;2023-06-14T06:06:18;101410.60;;;10.79;53.08
60817;BME280;51921;51.518;-3.188;2023-06-14T06:08:43;101410.60;;;11.33;52.89
60817;BME280;51921;51.518;-3.188;2023-06-14T06:11:09;101417.91;;;10.77;57.19
60817;BME280;51921;51.518;-3.188;2023-06-14T06:13:35;101421.09;;;11.35;56.89
60817;BME280;51921;51.518;-3.188;2023-06-14T06:16:00;101421.64;;;10.57;63.35
60817;BME280;51921;51.518;-3.188;2023-06-14T06:18:25;101424.85;;;10.59;66.71
60817;BME280;51921;51.518;-3.188;2023-06-14T06:20:50;101424.19;;;10.75;67.94
60817;BME280;51921;51.518;-3.188;2023-06-14T06:23:16;101426.95;;;10.73;69.06
60817;BME280;51921;51.518;-3.188;2023-06-14T06:25:42;101430.48;;;10.98;70.19
60817;BME280;51921;51.518;-3.188;2023-06-14T06:28:07;101431.51;;;10.81;71.87
60817;BME280;51921;51.518;-3.188;2023-06-14T06:30:32;101441.66;;;10.76;73.63
60817;BME280;51921;51.518;-3.188;2023-06-14T06:32:58;101434.00;;;11.16;72.22
60817;BME280;51921;51.518;-3.188;2023-06-14T06:35:23;101439.75;;;10.84;76.42
60817;BME280;51921;51.518;-3.188;2023-06-14T06:37:49;101447.78;;;10.70;79.48
60817;BME280;51921;51.518;-3.188;2023-06-14T06:40:14;101445.45;;;10.60;80.68
60817;BME280;51921;51.518;-3.188;2023-06-14T06:42:40;101446.56;;;10.46;80.58
60817;BME280;51921;51.518;-3.188;2023-06-14T06:45:06;101450.54;;;10.63;80.84
60817;BME280;51921;51.518;-3.188;2023-06-14T06:47:31;101434.46;;;11.71;76.16
60817;BME280;51921;51.518;-3.188;2023-06-14T06:49:56;101432.22;;;11.28;75.14
60817;BME280;51921;51.518;-3.188;2023-06-14T06:52:22;101435.55;;;10.84;77.11
60817;BME280;51921;51.518;-3.188;2023-06-14T06:54:47;101432.67;;;11.15;73.91
60817;BME280;51921;51.518;-3.188;2023-06-14T06:57:13;101433.57;;;11.15;74.82
60817;BME280;51921;51.518;-3.188;2023-06-14T06:59:38;101433.94;;;11.31;74.03
60817;BME280;51921;51.518;-3.188;2023-06-14T07:02:04;101429.94;;;11.72;72.76
60817;BME280;51921;51.518;-3.188;2023-06-14T07:04:29;101429.78;;;11.75;72.81
60817;BME280;51921;51.518;-3.188;2023-06-14T07:06:54;101428.90;;;11.48;72.43
60817;BME280;51921;51.518;-3.188;2023-06-14T07:09:20;101433.70;;;11.52;74.82
60817;BME280;51921;51.518;-3.188;2023-06-14T07:11:46;101434.34;;;11.56;73.52
60817;BME280;51921;51.518;-3.188;2023-06-14T07:14:11;101436.52;;;12.55;69.99
60817;BME280;51921;51.518;-3.188;2023-06-14T07:16:37;101436.14;;;12.44;69.18
60817;BME280;51921;51.518;-3.188;2023-06-14T07:19:02;101441.24;;;11.63;73.23
60817;BME280;51921;51.518;-3.188;2023-06-14T07:21:27;101437.70;;;11.85;74.05
60817;BME280;51921;51.518;-3.188;2023-06-14T07:23:53;101438.28;;;11.66;74.23
60817;BME280;51921;51.518;-3.188;2023-06-14T07:26:19;101440.63;;;12.74;69.23
60817;BME280;51921;51.518;-3.188;2023-06-14T07:28:44;101434.69;;;11.98;72.24
60817;BME280;51921;51.518;-3.188;2023-06-14T07:31:09;101428.89;;;13.00;68.46
60817;BME280;51921;51.518;-3.188;2023-06-14T07:33:34;101434.01;;;13.88;64.01
60817;BME280;51921;51.518;-3.188;2023-06-14T07:36:00;101433.47;;;13.43;63.86
60817;BME280;51921;51.518;-3.188;2023-06-14T07:38:25;101438.51;;;14.63;61.30
60817;BME280;51921;51.518;-3.188;2023-06-14T07:40:50;101436.97;;;15.13;58.62
60817;BME280;51921;51.518;-3.188;2023-06-14T07:43:16;101436.12;;;14.67;60.08
60817;BME280;51921;51.518;-3.188;2023-06-14T07:45:41;101435.56;;;15.07;59.51
60817;BME280;51921;51.518;-3.188;2023-06-14T07:48:06;101424.12;;;17.25;54.97
60817;BME280;51921;51.518;-3.188;2023-06-14T07:50:32;101427.19;;;16.63;53.53
60817;BME280;51921;51.518;-3.188;2023-06-14T07:52:57;101426.15;;;18.12;49.77
60817;BME280;51921;51.518;-3.188;2023-06-14T07:55:23;101444.12;;;13.99;57.43
60817;BME280;51921;51.518;-3.188;2023-06-14T07:57:48;101429.30;;;13.90;58.35
60817;BME280;51921;51.518;-3.188;2023-06-14T08:00:14;101435.77;;;14.22;56.02
60817;BME280;51921;51.518;-3.188;2023-06-14T08:02:39;101430.73;;;14.92;54.42
60817;BME280;51921;51.518;-3.188;2023-06-14T08:05:05;101438.37;;;14.61;55.23
60817;BME280;51921;51.518;-3.188;2023-06-14T08:07:29;101436.38;;;14.53;55.62
60817;BME280;51921;51.518;-3.188;2023-06-14T08:09:55;101436.75;;;15.29;53.64
60817;BME280;51921;51.518;-3.188;2023-06-14T08:12:20;101431.04;;;15.77;51.42
60817;BME280;51921;51.518;-3.188;2023-06-14T08:14:46;101434.87;;;15.03;53.37
60817;BME280;51921;51.518;-3.188;2023-06-14T08:17:12;101432.82;;;15.87;50.78
60817;BME280;51921;51.518;-3.188;2023-06-14T08:19:36;101431.62;;;15.29;49.98
60817;BME280;51921;51.518;-3.188;2023-06-14T08:22:02;101427.26;;;15.46;51.86
60817;BME280;51921;51.518;-3.188;2023-06-14T08:24:27;101429.55;;;14.66;52.00
60817;BME280;51921;51.518;-3.188;2023-06-14T08:26:53;101432.96;;;15.50;49.09
60817;BME280;51921;51.518;-3.188;2023-06-14T08:29:18;101423.55;;;15.68;48.44
60817;BME280;51921;51.518;-3.188;2023-06-14T08:31:43;101431.62;;;14.49;51.04
60817;BME280;51921;51.518;-3.188;2023-06-14T08:34:09;101429.65;;;15.99;50.87
60817;BME280;51921;51.518;-3.188;2023-06-14T08:36:35;101436.20;;;16.65;47.78
60817;BME280;51921;51.518;-3.188;2023-06-14T08:38:59;101432.08;;;17.04;51.25
60817;BME280;51921;51.518;-3.188;2023-06-14T08:41:25;101434.89;;;17.66;45.06
60817;BME280;51921;51.518;-3.188;2023-06-14T08:43:50;101441.27;;;16.24;46.02
60817;BME280;51921;51.518;-3.188;2023-06-14T08:46:17;101440.20;;;15.24;48.13
60817;BME280;51921;51.518;-3.188;2023-06-14T08:48:41;101440.70;;;14.89;51.07
60817;BME280;51921;51.518;-3.188;2023-06-14T08:51:06;101434.12;;;15.74;47.74
60817;BME280;51921;51.518;-3.188;2023-06-14T08:53:32;101432.33;;;16.05;48.04
60817;BME280;51921;51.518;-3.188;2023-06-14T08:55:57;101426.66;;;17.52;45.90
60817;BME280;51921;51.518;-3.188;2023-06-14T08:58:22;101436.53;;;18.74;44.18
60817;BME280;51921;51.518;-3.188;2023-06-14T09:00:48;101436.85;;;16.93;44.13
60817;BME280;51921;51.518;-3.188;2023-06-14T09:03:13;101436.79;;;16.01;44.64
60817;BME280;51921;51.518;-3.188;2023-06-14T09:05:38;101442.63;;;16.42;43.66
60817;BME280;51921;51.518;-3.188;2023-06-14T09:08:04;101436.55;;;17.06;42.18
60817;BME280;51921;51.518;-3.188;2023-06-14T09:10:31;101439.76;;;15.68;44.18
60817;BME280;51921;51.518;-3.188;2023-06-14T09:12:55;101436.23;;;16.21;45.13
60817;BME280;51921;51.518;-3.188;2023-06-14T09:15:19;101436.19;;;17.34;41.89
60817;BME280;51921;51.518;-3.188;2023-06-14T09:17:45;101429.97;;;17.24;42.05
60817;BME280;51921;51.518;-3.188;2023-06-14T09:20:10;101436.93;;;18.43;41.09
60817;BME280;51921;51.518;-3.188;2023-06-14T09:22:36;101442.04;;;17.99;40.91
60817;BME280;51921;51.518;-3.188;2023-06-14T09:25:01;101438.96;;;18.55;40.54
60817;BME280;51921;51.518;-3.188;2023-06-14T09:27:27;101438.95;;;16.92;42.75
60817;BME280;51921;51.518;-3.188;2023-06-14T09:29:51;101440.07;;;18.63;41.11
60817;BME280;51921;51.518;-3.188;2023-06-14T09:32:17;101444.21;;;16.59;41.76
60817;BME280;51921;51.518;-3.188;2023-06-14T09:34:42;101445.65;;;16.94;40.88
60817;BME280;51921;51.518;-3.188;2023-06-14T09:37:08;101443.80;;;17.16;39.29
60817;BME280;51921;51.518;-3.188;2023-06-14T09:39:33;101449.42;;;16.69;39.96
60817;BME280;51921;51.518;-3.188;2023-06-14T09:41:58;101446.51;;;17.59;39.42
60817;BME280;51921;51.518;-3.188;2023-06-14T09:44:25;101446.20;;;17.00;37.73
60817;BME280;51921;51.518;-3.188;2023-06-14T09:46:49;101448.71;;;17.19;40.15
60817;BME280;51921;51.518;-3.188;2023-06-14T09:49:14;101446.60;;;18.20;38.20
60817;BME280;51921;51.518;-3.188;2023-06-14T09:51:43;101454.49;;;16.95;42.90
60817;BME280;51921;51.518;-3.188;2023-06-14T09:54:05;101455.74;;;16.57;40.95
60817;BME280;51921;51.518;-3.188;2023-06-14T09:56:31;101457.86;;;16.60;41.01
60817;BME280;51921;51.518;-3.188;2023-06-14T09:58:56;101452.56;;;16.28;39.40
60817;BME280;51921;51.518;-3.188;2023-06-14T10:01:21;101451.80;;;17.24;38.14
60817;BME280;51921;51.518;-3.188;2023-06-14T10:03:46;101457.42;;;16.75;41.37
60817;BME280;51921;51.518;-3.188;2023-06-14T10:06:11;101456.53;;;17.14;41.02
60817;BME280;51921;51.518;-3.188;2023-06-14T10:08:37;101451.45;;;17.59;40.90
60817;BME280;51921;51.518;-3.188;2023-06-14T10:11:02;101450.74;;;17.66;44.14
60817;BME280;51921;51.518;-3.188;2023-06-14T10:13:29;101453.07;;;17.15;45.19
60817;BME280;51921;51.518;-3.188;2023-06-14T10:15:58;101452.86;;;16.27;44.23
60817;BME280;51921;51.518;-3.188;2023-06-14T10:18:21;101458.82;;;17.55;41.81
60817;BME280;51921;51.518;-3.188;2023-06-14T10:20:50;101456.72;;;17.65;45.54
60817;BME280;51921;51.518;-3.188;2023-06-14T10:23:22;101454.82;;;17.20;45.04
60817;BME280;51921;51.518;-3.188;2023-06-14T10:25:34;101461.26;;;16.73;46.57
60817;BME280;51921;51.518;-3.188;2023-06-14T10:28:03;101458.41;;;17.44;45.40
60817;BME280;51921;51.518;-3.188;2023-06-14T10:30:25;101455.59;;;17.97;42.60
60817;BME280;51921;51.518;-3.188;2023-06-14T10:33:03;101459.22;;;17.47;42.56
60817;BME280;51921;51.518;-3.188;2023-06-14T10:35:16;101456.35;;;17.56;39.59
60817;BME280;51921;51.518;-3.188;2023-06-14T10:37:41;101455.06;;;16.98;41.83
60817;BME280;51921;51.518;-3.188;2023-06-14T10:40:07;101459.33;;;17.38;41.17
60817;BME280;51921;51.518;-3.188;2023-06-14T10:42:32;101461.63;;;17.08;42.62
60817;BME280;51921;51.518;-3.188;2023-06-14T10:44:58;101460.21;;;17.56;41.68
60817;BME280;51921;51.518;-3.188;2023-06-14T10:47:25;101457.85;;;17.62;41.81
60817;BME280;51921;51.518;-3.188;2023-06-14T10:49:51;101456.31;;;17.74;40.77
60817;BME280;51921;51.518;-3.188;2023-06-14T10:52:14;101454.58;;;17.99;40.62
60817;BME280;51921;51.518;-3.188;2023-06-14T10:54:38;101445.70;;;19.42;39.98
60817;BME280;51921;51.518;-3.188;2023-06-14T10:57:06;101455.84;;;18.01;38.78
60817;BME280;51921;51.518;-3.188;2023-06-14T10:59:29;101450.16;;;17.75;37.85
60817;BME280;51921;51.518;-3.188;2023-06-14T11:01:58;101449.51;;;18.10;40.83
60817;BME280;51921;51.518;-3.188;2023-06-14T11:04:21;101452.79;;;18.67;40.41
60817;BME280;51921;51.518;-3.188;2023-06-14T11:06:47;101446.90;;;18.13;40.00
60817;BME280;51921;51.518;-3.188;2023-06-14T11:09:29;101448.25;;;18.98;39.45
60817;BME280;51921;51.518;-3.188;2023-06-14T11:11:38;101450.66;;;18.15;38.93
60817;BME280;51921;51.518;-3.188;2023-06-14T11:14:02;101441.14;;;17.88;40.18
60817;BME280;51921;51.518;-3.188;2023-06-14T11:16:27;101437.20;;;18.10;39.33
60817;BME280;51921;51.518;-3.188;2023-06-14T11:18:53;101440.72;;;18.62;40.61
60817;BME280;51921;51.518;-3.188;2023-06-14T11:21:18;101440.67;;;17.56;39.12
60817;BME280;51921;51.518;-3.188;2023-06-14T11:23:48;101434.30;;;20.00;35.60
60817;BME280;51921;51.518;-3.188;2023-06-14T11:26:09;101436.42;;;18.86;37.30
60817;BME280;51921;51.518;-3.188;2023-06-14T11:28:38;101439.75;;;19.19;36.90
60817;BME280;51921;51.518;-3.188;2023-06-14T11:31:01;101434.22;;;18.85;36.44
60817;BME280;51921;51.518;-3.188;2023-06-14T11:33:25;101436.24;;;18.98;36.78
60817;BME280;51921;51.518;-3.188;2023-06-14T11:35:51;101431.30;;;19.85;35.50
60817;BME280;51921;51.518;-3.188;2023-06-14T11:38:15;101427.81;;;20.00;33.82
60817;BME280;51921;51.518;-3.188;2023-06-14T11:40:41;101428.01;;;19.27;32.93
60817;BME280;51921;51.518;-3.188;2023-06-14T11:43:07;101434.33;;;19.34;33.92
60817;BME280;51921;51.518;-3.188;2023-06-14T11:45:32;101426.27;;;19.32;33.88
60817;BME280;51921;51.518;-3.188;2023-06-14T11:47:58;101442.50;;;19.03;32.95
60817;BME280;51921;51.518;-3.188;2023-06-14T11:50:24;101434.73;;;19.45;31.09
60817;BME280;51921;51.518;-3.188;2023-06-14T11:52:53;101421.92;;;20.08;28.67
60817;BME280;51921;51.518;-3.188;2023-06-14T11:55:14;101419.64;;;19.90;32.21
60817;BME280;51921;51.518;-3.188;2023-06-14T11:57:39;101424.40;;;18.93;35.20
60817;BME280;51921;51.518;-3.188;2023-06-14T12:00:08;101418.36;;;19.21;33.93
60817;BME280;51921;51.518;-3.188;2023-06-14T12:02:31;101419.33;;;19.46;35.92
60817;BME280;51921;51.518;-3.188;2023-06-14T12:04:55;101412.25;;;19.56;36.01
60817;BME280;51921;51.518;-3.188;2023-06-14T12:07:22;101413.36;;;19.53;32.47
60817;BME280;51921;51.518;-3.188;2023-06-14T12:12:12;101406.26;;;19.72;34.44
60817;BME280;51921;51.518;-3.188;2023-06-14T12:14:37;101409.19;;;19.60;35.20
60817;BME280;51921;51.518;-3.188;2023-06-14T12:17:05;101413.58;;;19.24;37.28
60817;BME280;51921;51.518;-3.188;2023-06-14T12:19:28;101402.67;;;20.02;37.43
60817;BME280;51921;51.518;-3.188;2023-06-14T12:21:53;101403.71;;;19.59;36.85
60817;BME280;51921;51.518;-3.188;2023-06-14T12:24:18;101413.96;;;19.09;38.97
60817;BME280;51921;51.518;-3.188;2023-06-14T12:26:44;101405.84;;;19.14;37.73
60817;BME280;51921;51.518;-3.188;2023-06-14T12:29:09;101407.48;;;19.42;36.57
60817;BME280;51921;51.518;-3.188;2023-06-14T12:31:35;101406.36;;;19.41;35.61